Lewes, DE (19958)

2:42 PM EDT on August 23, 2014 (GMT -0400)
CDWX_BC | Change Station
CLOSE
Current Station
Personal Weather Station
Location: Lewes, DE
Elevation: 23 ft
Nearby Weather Stations

Elev 23 ft 38.75 °N, 75.14 °W | Updated 2 minutes ago

Overcast
Overcast
75.9 °F
Feels Like 78 °F
N
4.0
Wind Variable Wind from SSE
Gusts 4.0 mph

Today
High -- | Low -- °F
--% Chance of Precip.
Yesterday
High -- | Low -- °F
Precip. -- in
6:21 AM 7:44 PM
Waning Crescent, 3% visible
Pressure 30.05 in
Visibility 10.0 miles
Clouds Overcast 2900 ft
Heat Index 78 °F
Dew Point 65 °F
Humidity 70%
Rainfall 0.00 in
Snow Depth Not available.
UV 3 out of 12
Pollen 6.40 out of 12
Air Quality Not available.
Flu Activity Not available.
METAR KGED 231754Z AUTO 11012KT 10SM OVC029 23/18 A3005 RMK AO2 SLP174 T02330178 10256 20211 53006

More Conditions Fewer Conditions

Pressure 30.05 in
Visibility 10.0 miles
Clouds Overcast 2900 ft
Heat Index 78 °F
Dew Point 65 °F
Humidity 70%
Rainfall 0.00 in
Snow Depth Not available.
UV 3 out of 12
Pollen 6.40 out of 12
Air Quality Not available.
Flu Activity Not available.
METAR KGED 231754Z AUTO 11012KT 10SM OVC029 23/18 A3005 RMK AO2 SLP174 T02330178 10256 20211 53006

More Conditions Fewer Conditions

Nowcast | as of 2:36 PM EDT on August 23, 2014

Through the middle of the afternoon showers will continue to move through the Delmarva Peninsula with the greatest concentration and duration in the Eastern Shore. The showers are moving toward the southeast. Rainfall amounts between 230 PM and 400 PM will average less than one tenth of an inch.

×

10-Day Weather Forecast

Almanac

Astronomy

Aug. 23, 2014 Rise Set
Actual Time 6:21 AM EDT 7:44 PM EDT
Civil Twilight 5:53 AM EDT 8:11 PM EDT
Nautical Twilight 5:20 AM EDT 8:45 PM EDT
Astronomical Twilight 4:45 AM EDT 9:20 PM EDT
Moon 4:36 AM EDT 6:27 PM EDT
Length of Visible Light 14h 17m
Length of Day
13h 22m
Tomorrow will be 2m 19s shorter.
Waning Crescent, 3% of the Moon is Illuminated
Today
Waning Crescent
Aug 25
New
Sep 2
First Quarter
Sep 8
Full
Sep 15
Last Quarter

Today's Extremes

State Highs State Lows

Community

WunderPhotos

Upload Photos

1,746,558 photos uploaded!

WunderBlogs® & News

By Dr. Jeff Masters
Director of Meteorology, Weather Underground
By Kari Strenfel
Meteorologist, Weather Underground
By Christopher C. Burt
Weather Historian, Weather Underground
August 23, 2014
August 23, 2014
August 23, 2014

Nearby

Snow Depth

Station Depth Elevation
No new snow has been reported.

Earthquake Activity

City Distance Mag. Time & Date
No recent earthquake activity has been reported nearby.
Minimum magnitude displayed is 2.5.

Coastal Water Temperatures

Place Temperature
Ocean City Inlet, MD 77.0 °F
Lewes, DE 75.9 °F
Cape May, NJ 80.1 °F

Nearby Weather Stations